Time;durP1;ratioP1;P1;durP2;ratioP2;P2;SDS_P1;SDS_P2;PMS_P1;PMS_P2;Temp;Humidity;BMP_temperature;BMP_pressure;BME280_temperature;BME280_humidity;BME280_pressure;Samples;Min_cycle;Max_cycle;Signal;HPM_P1;HPM_P2
2021/06/05 00:01:56;;;;;;;1.20;0.90;;;23.50;99.90;;;;;;5127315;27;20263;-88
2021/06/05 00:04:28;;;;;;;3.60;1.07;;;23.70;99.90;;;;;;5116891;28;20218;-89
2021/06/05 00:06:58;;;;;;;4.57;1.37;;;23.10;99.90;;;;;;5117370;28;20325;-89
2021/06/05 00:09:29;;;;;;;1.93;1.13;;;23.20;99.90;;;;;;5131000;27;20309;-89
2021/06/05 00:12:04;;;;;;;2.80;1.03;;;23.60;99.90;;;;;;5124243;27;20285;-88
2021/06/05 00:14:43;;;;;;;3.80;0.87;;;23.30;99.90;;;;;;5121106;27;20212;-89
2021/06/05 00:17:13;;;;;;;4.63;1.30;;;23.50;99.90;;;;;;5133087;27;20217;-89
2021/06/05 00:19:47;;;;;;;5.53;1.07;;;23.50;99.90;;;;;;5124775;27;20193;-91
2021/06/05 00:22:17;;;;;;;1.60;0.93;;;23.40;99.90;;;;;;5114993;28;20232;-90
2021/06/05 00:24:48;;;;;;;1.90;1.10;;;23.20;99.90;;;;;;5366071;22;20287;-89
2021/06/05 00:27:21;;;;;;;2.20;0.87;;;22.80;99.90;;;;;;5081567;28;20271;-90
2021/06/05 00:29:51;;;;;;;3.23;1.13;;;22.90;99.90;;;;;;5077520;28;20230;-90
2021/06/05 00:32:21;;;;;;;1.87;0.80;;;22.60;99.90;;;;;;5079803;28;20239;-90
2021/06/05 00:34:53;;;;;;;2.97;1.20;;;22.60;99.90;;;;;;5059312;28;20219;-90
2021/06/05 00:37:24;;;;;;;1.90;1.00;;;22.70;99.90;;;;;;5076484;28;20258;-88
2021/06/05 00:39:55;;;;;;;1.97;1.20;;;22.60;99.90;;;;;;5076109;28;20357;-89
2021/06/05 00:42:27;;;;;;;2.37;0.90;;;22.50;99.90;;;;;;5078543;28;20210;-89
2021/06/05 00:45:00;;;;;;;3.73;0.93;;;22.20;99.90;;;;;;5079544;28;20264;-88
2021/06/05 00:47:31;;;;;;;1.90;0.90;;;21.80;99.90;;;;;;5080139;28;20306;-90
2021/06/05 00:50:03;;;;;;;3.13;1.10;;;21.50;99.90;;;;;;5076873;28;20211;-90
2021/06/05 00:52:34;;;;;;;3.10;1.27;;;22.00;99.90;;;;;;5079650;28;20625;-90
2021/06/05 00:55:06;;;;;;;2.13;0.93;;;22.30;99.90;;;;;;5085763;28;20223;-90
2021/06/05 00:57:42;;;;;;;4.03;1.27;;;21.60;99.90;;;;;;5078374;28;20211;-90
2021/06/05 01:00:19;;;;;;;2.50;1.00;;;22.20;99.90;;;;;;5077318;28;20219;-88
2021/06/05 01:02:53;;;;;;;2.73;1.23;;;23.00;99.90;;;;;;5076821;28;20214;-88
2021/06/05 01:05:24;;;;;;;2.03;1.13;;;23.70;99.90;;;;;;5075775;28;20257;-89
2021/06/05 01:07:57;;;;;;;1.53;1.00;;;24.40;99.90;;;;;;5057328;28;20755;-90
2021/06/05 01:10:32;;;;;;;3.93;1.10;;;25.10;99.90;;;;;;5065448;28;20273;-92
2021/06/05 01:13:09;;;;;;;3.60;1.20;;;25.30;99.90;;;;;;5075587;28;20207;-88
2021/06/05 01:15:46;;;;;;;4.00;1.20;;;25.00;99.90;;;;;;5073867;28;20211;-90
2021/06/05 01:18:25;;;;;;;1.77;0.90;;;24.60;99.90;;;;;;5057273;28;20686;-89
2021/06/05 01:21:14;;;;;;;2.63;1.27;;;24.00;99.90;;;;;;5074305;28;20298;-89
2021/06/05 01:23:51;;;;;;;3.70;1.37;;;23.50;99.90;;;;;;5071114;28;20282;-91
2021/06/05 01:26:27;;;;;;;2.77;1.43;;;23.70;99.90;;;;;;5074072;28;20302;-90
2021/06/05 01:29:01;;;;;;;1.73;1.30;;;23.30;99.90;;;;;;5074710;28;20231;-89
2021/06/05 01:31:36;;;;;;;3.37;1.40;;;23.40;99.90;;;;;;4737579;28;10001515;-91
2021/06/05 01:34:08;;;;;;;3.50;1.43;;;23.80;99.90;;;;;;5076323;28;20211;-96
2021/06/05 01:36:45;;;;;;;3.60;1.10;;;24.50;99.90;;;;;;5092936;28;20246;-96
2021/06/05 01:42:04;;;;;;;2.83;1.10;;;24.70;99.90;;;;;;5280170;22;20268;-94
2021/06/05 01:49:55;;;;;;;1.83;1.30;;;22.40;99.90;;;;;;5461773;23;20232;-96
2021/06/05 01:52:31;;;;;;;3.90;1.43;;;22.10;99.90;;;;;;5042803;28;20253;-93
2021/06/05 01:55:08;;;;;;;3.20;1.30;;;21.90;99.90;;;;;;5028635;28;20184;-92
2021/06/05 01:57:44;;;;;;;2.30;1.30;;;22.50;99.90;;;;;;5042725;28;20209;-95
2021/06/05 02:00:25;;;;;;;3.50;1.27;;;23.00;99.90;;;;;;5028986;28;20213;-94
2021/06/05 02:02:57;;;;;;;2.90;1.20;;;23.10;99.90;;;;;;5056468;28;20193;-95
2021/06/05 02:05:30;;;;;;;2.73;1.27;;;24.00;99.90;;;;;;5008710;28;20209;-95
2021/06/05 02:08:00;;;;;;;2.83;0.83;;;24.00;99.90;;;;;;5050228;28;20299;-96
2021/06/05 02:10:33;;;;;;;2.47;1.13;;;23.40;99.90;;;;;;5038623;28;20240;-95
2021/06/05 02:13:08;;;;;;;2.77;1.10;;;22.80;99.90;;;;;;5037064;28;20243;-94
2021/06/05 02:15:45;;;;;;;2.93;1.00;;;21.90;99.90;;;;;;5043295;28;20246;-96
2021/06/05 02:18:20;;;;;;;1.50;0.90;;;22.70;99.90;;;;;;5029786;28;20204;-96
2021/06/05 02:20:54;;;;;;;2.07;1.00;;;22.80;99.90;;;;;;5048978;28;20199;-96
2021/06/05 02:23:29;;;;;;;2.77;1.13;;;22.40;99.90;;;;;;5049055;28;20224;-96
2021/06/05 02:26:01;;;;;;;3.63;1.20;;;21.70;99.90;;;;;;5051208;28;20208;-96
2021/06/05 02:28:37;;;;;;;2.33;1.00;;;21.40;99.90;;;;;;5055729;28;20228;-96
2021/06/05 02:31:09;;;;;;;3.40;1.10;;;21.00;99.90;;;;;;5068233;28;20231;-96
2021/06/05 02:33:42;;;;;;;3.43;0.90;;;20.60;99.90;;;;;;5062229;28;20209;-96
2021/06/05 02:36:14;;;;;;;1.57;0.80;;;20.30;99.90;;;;;;5054258;28;20237;-96
2021/06/05 02:38:53;;;;;;;3.10;1.10;;;20.20;99.90;;;;;;5046786;28;20243;-96
2021/06/05 02:41:27;;;;;;;3.03;1.13;;;20.00;99.90;;;;;;5017927;28;20220;-96
2021/06/05 02:44:18;;;;;;;3.33;1.23;;;20.10;99.90;;;;;;5047869;28;20225;-96
2021/06/05 02:46:50;;;;;;;1.30;1.00;;;20.00;99.90;;;;;;5056441;28;20204;-96
2021/06/05 02:49:28;;;;;;;2.17;0.90;;;19.80;99.90;;;;;;5063771;28;20220;-96
2021/06/05 02:52:03;;;;;;;4.20;1.17;;;19.90;99.90;;;;;;5594614;22;20228;-93
2021/06/05 02:54:35;;;;;;;3.87;1.30;;;19.80;99.90;;;;;;5038650;28;20217;-96
2021/06/05 02:57:09;;;;;;;3.77;0.80;;;19.60;99.90;;;;;;5040509;28;20231;-95
2021/06/05 03:00:19;;;;;;;1.90;0.90;;;19.40;99.90;;;;;;5036823;28;20243;-96
2021/06/05 03:02:55;;;;;;;3.30;1.07;;;19.50;99.90;;;;;;5020777;28;20217;-96
2021/06/05 03:05:26;;;;;;;1.73;0.80;;;19.30;99.90;;;;;;5023592;28;20209;-96
2021/06/05 03:07:56;;;;;;;2.80;0.93;;;19.20;99.90;;;;;;5039411;28;20263;-95
2021/06/05 03:10:28;;;;;;;3.13;1.00;;;19.20;99.90;;;;;;5038623;28;20201;-95
2021/06/05 03:12:59;;;;;;;2.87;0.93;;;19.10;99.90;;;;;;5038829;28;20295;-96
2021/06/05 03:15:31;;;;;;;1.50;0.50;;;19.10;99.90;;;;;;5038220;28;20209;-96
2021/06/05 03:18:05;;;;;;;2.50;0.90;;;18.90;99.90;;;;;;5025495;28;20213;-95
2021/06/05 03:20:39;;;;;;;2.53;0.70;;;18.80;99.90;;;;;;5018906;28;20316;-96
2021/06/05 03:23:13;;;;;;;3.27;0.70;;;18.80;99.90;;;;;;5023673;28;20254;-96
2021/06/05 03:25:46;;;;;;;2.80;0.77;;;18.80;99.90;;;;;;5023034;28;20220;-96
2021/06/05 03:28:19;;;;;;;1.97;1.07;;;18.70;99.90;;;;;;5023628;28;20268;-96
2021/06/05 03:30:51;;;;;;;1.57;0.90;;;18.60;99.90;;;;;;5024659;28;20636;-96
2021/06/05 03:33:27;;;;;;;1.47;0.73;;;18.50;99.90;;;;;;5025040;28;20236;-96
2021/06/05 03:35:59;;;;;;;2.07;0.70;;;18.50;99.90;;;;;;5024218;28;20219;-96
2021/06/05 03:38:41;;;;;;;1.90;0.80;;;18.40;99.90;;;;;;5024452;28;20615;-96
2021/06/05 03:41:16;;;;;;;2.57;0.70;;;18.30;99.90;;;;;;5033887;28;20212;-96
2021/06/05 03:43:47;;;;;;;2.47;0.63;;;18.30;99.90;;;;;;5044784;28;20220;-96
2021/06/05 03:46:19;;;;;;;1.90;0.60;;;18.20;99.90;;;;;;5045422;28;20240;-96
2021/06/05 03:48:52;;;;;;;4.20;0.57;;;18.20;99.90;;;;;;5049780;28;20232;-96
2021/06/05 03:51:25;;;;;;;1.73;0.63;;;18.20;99.90;;;;;;5043119;28;20244;-96
2021/06/05 03:53:57;;;;;;;2.97;0.60;;;18.20;99.90;;;;;;5045029;28;20263;-96
2021/06/05 03:56:33;;;;;;;1.10;0.63;;;18.20;99.90;;;;;;5043794;28;20204;-96
2021/06/05 03:59:05;;;;;;;1.97;0.40;;;18.20;99.90;;;;;;5046019;28;20654;-95
2021/06/05 04:01:40;;;;;;;1.93;0.50;;;18.20;99.90;;;;;;5044854;28;20205;-96
2021/06/05 04:04:15;;;;;;;2.13;0.70;;;18.10;99.90;;;;;;5045678;28;20222;-96
2021/06/05 04:06:59;;;;;;;1.73;0.70;;;18.10;99.90;;;;;;5038880;28;20252;-96
2021/06/05 04:09:30;;;;;;;1.70;0.60;;;18.10;99.90;;;;;;5059267;28;20217;-96
2021/06/05 04:12:00;;;;;;;1.03;0.67;;;18.10;99.90;;;;;;5044237;28;20198;-95
2021/06/05 04:14:32;;;;;;;1.43;0.57;;;18.10;99.90;;;;;;5036645;28;20206;-96
2021/06/05 04:17:03;;;;;;;1.70;0.50;;;18.00;99.90;;;;;;5033321;28;20210;-95
2021/06/05 04:19:38;;;;;;;4.23;0.60;;;18.00;99.90;;;;;;5032072;28;20241;-95
2021/06/05 04:22:12;;;;;;;1.77;0.60;;;18.00;99.90;;;;;;5028476;28;20209;-95
2021/06/05 04:24:44;;;;;;;1.93;0.70;;;17.90;99.90;;;;;;5023547;28;20213;-95
2021/06/05 04:27:14;;;;;;;4.43;0.77;;;17.80;99.90;;;;;;5006738;28;20263;-95
2021/06/05 04:29:45;;;;;;;2.13;0.70;;;17.80;99.90;;;;;;5018730;28;20237;-96
2021/06/05 04:32:15;;;;;;;6.20;0.80;;;17.70;99.90;;;;;;5019268;28;20292;-96
2021/06/05 04:34:48;;;;;;;2.77;0.60;;;17.70;99.90;;;;;;5006263;28;20214;-96
2021/06/05 04:37:19;;;;;;;2.87;0.80;;;17.60;99.90;;;;;;4997461;28;20218;-96
2021/06/05 04:39:50;;;;;;;1.10;0.60;;;17.60;99.90;;;;;;4998316;28;20242;-96
2021/06/05 04:42:23;;;;;;;1.23;0.70;;;17.50;99.90;;;;;;4999825;28;20262;-96
2021/06/05 04:44:56;;;;;;;3.30;0.80;;;17.60;99.90;;;;;;5020168;28;20240;-96
2021/06/05 04:47:27;;;;;;;2.80;0.70;;;17.50;99.90;;;;;;5020377;28;20583;-96
2021/06/05 04:50:00;;;;;;;1.80;0.50;;;17.40;99.90;;;;;;5016118;28;20237;-96
2021/06/05 04:52:33;;;;;;;1.23;0.67;;;17.40;99.90;;;;;;5017766;28;20741;-96
2021/06/05 04:55:05;;;;;;;1.63;0.70;;;17.40;99.90;;;;;;5019294;28;20296;-95
2021/06/05 04:57:52;;;;;;;0.60;0.53;;;17.40;99.90;;;;;;5017863;28;20221;-96
2021/06/05 05:00:31;;;;;;;1.67;0.60;;;17.30;99.90;;;;;;5013788;28;20556;-95
2021/06/05 05:03:20;;;;;;;0.93;0.40;;;17.40;99.90;;;;;;5016173;28;20210;-95
2021/06/05 05:05:56;;;;;;;1.57;0.70;;;17.40;99.90;;;;;;5018871;28;20213;-95
2021/06/05 05:08:28;;;;;;;1.43;0.57;;;17.40;99.90;;;;;;5017934;28;20335;-95
2021/06/05 05:11:04;;;;;;;1.70;0.50;;;17.30;99.90;;;;;;5018069;28;20210;-96
2021/06/05 05:13:40;;;;;;;1.40;0.47;;;17.30;99.90;;;;;;5018613;28;20231;-96
2021/06/05 05:16:11;;;;;;;1.80;0.50;;;17.20;99.90;;;;;;5016999;28;20655;-96
2021/06/05 05:18:56;;;;;;;2.87;0.70;;;17.20;99.90;;;;;;5031083;28;20215;-96
2021/06/05 05:21:31;;;;;;;1.43;0.70;;;17.20;99.90;;;;;;5037480;28;20576;-96
2021/06/05 05:24:14;;;;;;;2.00;0.80;;;17.20;99.90;;;;;;5039421;28;20204;-96
2021/06/05 05:26:46;;;;;;;4.57;0.80;;;17.10;99.90;;;;;;5036929;28;20646;-95
2021/06/05 05:29:17;;;;;;;2.87;0.67;;;17.10;99.90;;;;;;5019034;28;20237;-95
2021/06/05 05:31:50;;;;;;;2.13;0.87;;;17.00;99.90;;;;;;5023996;28;20608;-96
2021/06/05 05:34:22;;;;;;;1.27;0.70;;;16.90;99.90;;;;;;5037796;28;20216;-96
2021/06/05 05:37:03;;;;;;;1.93;0.60;;;17.00;99.90;;;;;;5020258;28;20228;-95
2021/06/05 05:39:35;;;;;;;2.00;0.70;;;16.90;99.90;;;;;;5016920;28;20202;-95
2021/06/05 05:42:07;;;;;;;1.00;0.50;;;16.90;99.90;;;;;;5017024;28;20212;-95
2021/06/05 05:44:38;;;;;;;1.80;0.67;;;16.90;99.90;;;;;;5012821;28;20211;-95
2021/06/05 05:47:10;;;;;;;2.67;0.67;;;16.80;99.90;;;;;;5016520;28;20244;-95
2021/06/05 05:49:40;;;;;;;1.40;0.60;;;16.80;99.90;;;;;;5015544;28;20264;-95
2021/06/05 05:52:19;;;;;;;1.30;0.53;;;16.80;99.90;;;;;;5017998;28;20301;-96
2021/06/05 05:54:52;;;;;;;1.53;0.70;;;16.80;99.90;;;;;;5022750;28;20209;-96
2021/06/05 05:57:25;;;;;;;4.20;0.80;;;16.70;99.90;;;;;;5016842;28;20201;-96
2021/06/05 05:59:57;;;;;;;1.40;0.60;;;16.70;99.90;;;;;;5017993;28;20225;-96
2021/06/05 06:02:40;;;;;;;2.47;0.97;;;16.50;99.90;;;;;;5018021;28;20217;-96
2021/06/05 06:05:12;;;;;;;1.27;0.70;;;16.50;99.90;;;;;;5019916;28;20205;-95
2021/06/05 06:07:46;;;;;;;1.83;0.70;;;16.50;99.90;;;;;;5020076;28;20217;-94
2021/06/05 06:10:20;;;;;;;1.33;0.40;;;16.40;99.90;;;;;;5019038;28;20229;-95
2021/06/05 06:12:54;;;;;;;2.37;0.60;;;16.40;99.90;;;;;;5003976;28;20217;-96
2021/06/05 06:15:28;;;;;;;2.23;0.70;;;16.30;99.90;;;;;;5016616;28;20221;-95
2021/06/05 06:18:00;;;;;;;2.63;0.70;;;16.20;99.90;;;;;;5034740;28;20238;-96
2021/06/05 06:20:48;;;;;;;2.80;0.80;;;16.20;99.90;;;;;;5043217;28;20220;-96
2021/06/05 06:28:50;;;;;;;1.83;0.70;;;16.10;99.90;;;;;;5051075;23;20317;-94
2021/06/05 06:31:22;;;;;;;1.30;0.60;;;16.10;99.90;;;;;;5036088;28;20199;-96
2021/06/05 06:34:07;;;;;;;1.13;0.43;;;16.00;99.90;;;;;;5035353;28;20233;-96
2021/06/05 06:36:42;;;;;;;1.10;0.70;;;16.00;99.90;;;;;;5031755;28;20236;-96
2021/06/05 06:39:25;;;;;;;1.00;0.50;;;16.00;99.90;;;;;;5027528;28;20237;-96
2021/06/05 06:41:56;;;;;;;4.40;0.57;;;16.00;99.90;;;;;;5026109;28;20232;-96
2021/06/05 06:44:29;;;;;;;2.37;0.60;;;15.90;99.90;;;;;;5026838;28;20213;-95
2021/06/05 06:47:06;;;;;;;1.20;0.50;;;15.90;99.90;;;;;;5030786;28;20217;-96
2021/06/05 06:49:37;;;;;;;1.50;0.67;;;15.80;99.90;;;;;;5004290;28;20225;-96
2021/06/05 06:52:10;;;;;;;2.47;0.50;;;15.80;99.90;;;;;;5017868;28;20222;-96
2021/06/05 06:54:40;;;;;;;1.90;0.70;;;15.80;99.90;;;;;;5016660;28;20217;-96
2021/06/05 06:57:12;;;;;;;1.47;0.60;;;15.70;99.90;;;;;;5047024;28;20244;-96
2021/06/05 06:59:50;;;;;;;1.03;0.50;;;15.70;99.90;;;;;;5017273;28;20209;-96
2021/06/05 07:02:22;;;;;;;1.10;0.47;;;15.70;99.90;;;;;;5012229;28;20212;-96
2021/06/05 07:04:58;;;;;;;1.13;0.57;;;15.70;99.90;;;;;;5013681;28;20205;-96
2021/06/05 07:07:36;;;;;;;1.17;0.43;;;15.60;99.90;;;;;;5021814;28;20221;-96
2021/06/05 07:10:15;;;;;;;0.93;0.40;;;15.50;99.90;;;;;;5020335;28;20237;-95
2021/06/05 07:12:46;;;;;;;1.57;0.43;;;15.50;99.90;;;;;;5022615;28;20212;-95
2021/06/05 07:15:23;;;;;;;2.10;0.40;;;15.50;99.90;;;;;;5026730;28;20206;-95
2021/06/05 07:17:54;;;;;;;1.13;0.60;;;15.40;99.90;;;;;;5028659;28;20221;-96
2021/06/05 07:20:25;;;;;;;3.07;0.53;;;15.30;99.90;;;;;;5025372;28;20229;-95
2021/06/05 07:22:55;;;;;;;0.90;0.40;;;15.20;99.90;;;;;;5036353;28;20186;-93
2021/06/05 07:25:27;;;;;;;1.53;0.40;;;15.20;99.90;;;;;;5039610;28;20240;-96
2021/06/05 07:28:10;;;;;;;0.67;0.27;;;15.10;99.90;;;;;;5039598;28;20190;-95
2021/06/05 07:30:43;;;;;;;0.80;0.30;;;15.10;99.90;;;;;;5040136;28;20210;-96
2021/06/05 07:33:15;;;;;;;0.43;0.30;;;15.00;99.90;;;;;;5040067;28;20220;-95
2021/06/05 07:35:50;;;;;;;1.33;0.40;;;14.90;99.90;;;;;;5039923;28;20223;-96
2021/06/05 07:38:23;;;;;;;1.90;0.53;;;14.90;99.90;;;;;;5037763;28;20335;-94
2021/06/05 07:40:55;;;;;;;0.63;0.30;;;14.90;99.90;;;;;;5008742;28;20269;-96
2021/06/05 07:43:31;;;;;;;1.03;0.30;;;14.80;99.90;;;;;;5009559;28;20206;-96
2021/06/05 07:46:30;;;;;;;1.07;0.40;;;14.70;99.90;;;;;;5010193;28;20201;-96
2021/06/05 07:49:06;;;;;;;1.07;0.40;;;14.70;99.90;;;;;;5023879;28;20271;-96
2021/06/05 07:51:37;;;;;;;2.00;0.47;;;14.60;99.90;;;;;;5019640;28;20218;-96
2021/06/05 07:54:11;;;;;;;0.47;0.40;;;14.60;99.90;;;;;;5023336;28;20210;-96
2021/06/05 07:56:42;;;;;;;1.33;0.50;;;14.60;99.90;;;;;;5064272;23;20688;-95
2021/06/05 07:59:12;;;;;;;3.17;0.30;;;14.60;99.90;;;;;;5019814;28;20269;-96
2021/06/05 08:04:35;;;;;;;33.77;1.43;;;14.50;99.90;;;;;;5018297;28;20213;-94
2021/06/05 08:07:08;;;;;;;0.83;0.30;;;14.40;99.90;;;;;;5031402;28;20205;-94
2021/06/05 08:09:40;;;;;;;0.93;0.40;;;14.40;99.90;;;;;;5040348;28;20212;-94
2021/06/05 08:12:19;;;;;;;2.17;0.50;;;14.40;99.90;;;;;;5023931;28;20205;-95
2021/06/05 08:14:50;;;;;;;2.07;0.40;;;14.30;99.90;;;;;;5019717;28;20278;-94
2021/06/05 08:17:29;;;;;;;1.70;0.30;;;14.30;99.90;;;;;;5019801;28;20210;-95
2021/06/05 08:20:00;;;;;;;0.73;0.30;;;14.30;99.90;;;;;;5019453;28;20237;-95
2021/06/05 08:22:31;;;;;;;1.63;0.40;;;14.30;99.90;;;;;;5019933;28;20530;-95
2021/06/05 08:25:06;;;;;;;0.33;0.30;;;14.20;99.90;;;;;;5020410;28;20272;-94
2021/06/05 08:27:39;;;;;;;2.00;0.40;;;14.20;99.90;;;;;;5020616;28;20264;-95
2021/06/05 08:30:29;;;;;;;1.33;0.40;;;14.10;99.90;;;;;;5019073;28;20241;-95
2021/06/05 08:33:02;;;;;;;0.90;0.50;;;14.00;99.90;;;;;;5029412;28;20654;-94
2021/06/05 08:35:37;;;;;;;2.10;0.50;;;14.00;99.90;;;;;;5024796;28;20237;-95
2021/06/05 08:38:09;;;;;;;0.50;0.50;;;14.00;99.90;;;;;;5021970;28;20216;-95
2021/06/05 08:41:01;;;;;;;0.87;0.40;;;13.90;99.90;;;;;;5021919;28;20268;-94
2021/06/05 08:43:36;;;;;;;1.03;0.40;;;13.90;99.90;;;;;;5046218;28;20242;-95
2021/06/05 08:46:09;;;;;;;1.07;0.40;;;14.00;99.90;;;;;;5047396;28;20212;-94
2021/06/05 08:48:43;;;;;;;1.70;0.40;;;14.00;99.90;;;;;;5051093;28;20225;-96
2021/06/05 08:51:26;;;;;;;3.57;0.40;;;14.00;99.90;;;;;;5026857;28;20187;-95
2021/06/05 08:54:07;;;;;;;0.40;0.40;;;13.90;99.90;;;;;;5016373;28;20206;-95
2021/06/05 08:56:42;;;;;;;0.50;0.40;;;13.90;99.90;;;;;;5016351;28;20222;-94
2021/06/05 08:59:20;;;;;;;1.27;0.40;;;13.90;99.90;;;;;;5021534;28;20205;-96
2021/06/05 09:01:51;;;;;;;0.67;0.40;;;14.00;99.90;;;;;;5026880;28;20201;-95
2021/06/05 09:04:32;;;;;;;4.87;0.60;;;14.00;99.90;;;;;;5022080;28;20240;-94
2021/06/05 09:07:14;;;;;;;2.43;0.40;;;14.00;99.90;;;;;;5022892;28;20217;-95
2021/06/05 09:12:35;;;;;;;2.70;0.30;;;13.90;99.90;;;;;;5020477;28;20229;-95
2021/06/05 09:15:09;;;;;;;1.27;0.23;;;14.00;99.90;;;;;;5022992;28;20280;-95
2021/06/05 09:17:48;;;;;;;1.40;0.33;;;14.10;99.90;;;;;;5020973;28;20275;-94
2021/06/05 09:20:34;;;;;;;2.57;0.50;;;14.00;99.90;;;;;;5018765;28;20237;-93
2021/06/05 09:23:23;;;;;;;1.50;0.30;;;14.00;99.90;;;;;;5020933;28;20244;-94
2021/06/05 09:25:55;;;;;;;0.50;0.30;;;14.00;99.90;;;;;;5020464;28;20264;-93
2021/06/05 09:28:30;;;;;;;0.97;0.50;;;14.00;99.90;;;;;;5022627;28;20209;-94
2021/06/05 09:31:18;;;;;;;0.30;0.20;;;14.00;99.90;;;;;;5020252;28;20551;-96
2021/06/05 09:33:52;;;;;;;0.70;0.30;;;14.00;99.90;;;;;;5024454;28;20661;-96
2021/06/05 09:36:33;;;;;;;0.90;0.30;;;14.00;99.90;;;;;;5024076;28;20206;-96
2021/06/05 09:39:08;;;;;;;0.80;0.60;;;14.00;99.90;;;;;;5025183;28;20300;-95
2021/06/05 09:41:46;;;;;;;0.80;0.30;;;14.00;99.90;;;;;;5026220;28;20256;-95
2021/06/05 09:44:28;;;;;;;4.87;0.50;;;14.00;99.90;;;;;;5027260;28;20217;-95
2021/06/05 09:47:04;;;;;;;0.83;0.40;;;14.00;99.90;;;;;;5026221;28;20205;-95
2021/06/05 09:49:46;;;;;;;0.47;0.23;;;14.00;99.90;;;;;;5026673;28;20630;-95
2021/06/05 09:52:44;;;;;;;1.80;0.40;;;14.00;99.90;;;;;;5022595;28;20272;-96
2021/06/05 09:55:40;;;;;;;3.50;0.53;;;14.00;99.90;;;;;;5000036;28;20213;-94
2021/06/05 09:58:35;;;;;;;0.27;0.20;;;14.10;99.90;;;;;;4996834;28;20209;-94
2021/06/05 10:01:21;;;;;;;0.50;0.40;;;14.10;99.90;;;;;;4998044;28;20295;-95
2021/06/05 10:03:55;;;;;;;2.40;0.40;;;14.00;99.90;;;;;;5016337;28;20244;-95
2021/06/05 10:06:40;;;;;;;0.90;0.27;;;14.10;99.90;;;;;;5018879;28;20217;-95
2021/06/05 10:09:34;;;;;;;2.63;0.43;;;14.10;99.90;;;;;;5019615;28;20213;-94
2021/06/05 10:12:09;;;;;;;0.60;0.30;;;14.00;99.90;;;;;;5028260;28;20206;-94
2021/06/05 10:14:49;;;;;;;1.37;0.40;;;13.90;99.90;;;;;;5020980;28;20633;-94
2021/06/05 10:20:51;;;;;;;5.47;0.83;;;13.80;99.90;;;;;;5016276;28;20248;-96
2021/06/05 10:23:26;;;;;;;1.83;0.43;;;13.60;99.90;;;;;;5013857;28;20237;-95
2021/06/05 10:26:08;;;;;;;2.20;0.60;;;13.10;99.90;;;;;;5002149;28;20253;-95
2021/06/05 10:28:51;;;;;;;0.80;0.40;;;12.50;99.90;;;;;;5013201;28;20264;-95
2021/06/05 10:31:26;;;;;;;1.00;0.40;;;12.40;99.90;;;;;;5019632;28;20213;-95
2021/06/05 10:34:02;;;;;;;2.50;0.60;;;12.20;99.90;;;;;;5019463;28;20219;-96
2021/06/05 10:36:39;;;;;;;2.97;0.77;;;12.00;99.90;;;;;;5023403;28;20205;-95
2021/06/05 10:39:17;;;;;;;1.60;0.50;;;12.00;99.90;;;;;;5037155;28;20212;-96
2021/06/05 10:41:55;;;;;;;1.13;0.60;;;11.90;99.90;;;;;;5036469;28;20294;-95
2021/06/05 10:44:27;;;;;;;2.47;0.53;;;11.80;99.90;;;;;;5018498;28;20229;-96
2021/06/05 10:47:07;;;;;;;2.50;0.60;;;11.70;99.90;;;;;;5017527;28;20221;-95
2021/06/05 10:49:42;;;;;;;1.20;0.60;;;11.60;99.90;;;;;;5020957;28;20619;-95
2021/06/05 10:52:25;;;;;;;0.83;0.40;;;11.70;99.90;;;;;;5022219;28;20640;-96
2021/06/05 10:54:59;;;;;;;1.57;0.67;;;11.80;99.90;;;;;;5033846;28;20410;-95
2021/06/05 10:57:48;;;;;;;1.10;0.43;;;11.90;99.90;;;;;;5028440;28;20224;-96
2021/06/05 11:00:45;;;;;;;1.73;0.63;;;11.90;99.90;;;;;;5022712;28;20643;-95
2021/06/05 11:07:22;;;;;;;0.83;0.60;;;12.10;99.90;;;;;;5033940;28;20241;-96
2021/06/05 11:09:57;;;;;;;2.13;0.63;;;12.20;99.90;;;;;;5026849;28;20206;-94
2021/06/05 11:13:01;;;;;;;1.40;0.50;;;12.20;99.90;;;;;;5027593;28;20683;-95
2021/06/05 11:16:00;;;;;;;0.40;0.30;;;12.20;99.90;;;;;;5028705;28;20205;-96
2021/06/05 11:18:35;;;;;;;1.40;0.83;;;12.20;99.90;;;;;;5020764;28;20214;-96
2021/06/05 11:21:41;;;;;;;1.43;0.60;;;12.20;99.90;;;;;;5025933;28;20232;-96
2021/06/05 11:24:24;;;;;;;1.27;0.60;;;12.20;99.90;;;;;;5022365;28;20213;-96
2021/06/05 11:26:56;;;;;;;2.17;0.80;;;12.20;99.90;;;;;;5021162;28;20607;-95
2021/06/05 11:30:00;;;;;;;1.10;0.60;;;12.20;99.90;;;;;;5020246;28;20275;-94
2021/06/05 11:32:55;;;;;;;0.50;0.50;;;12.10;99.90;;;;;;4979307;28;20249;-93
2021/06/05 11:35:49;;;;;;;1.07;0.40;;;12.10;99.90;;;;;;5018572;28;20685;-93
2021/06/05 11:38:51;;;;;;;1.73;0.60;;;12.10;99.90;;;;;;5018912;28;20212;-94
2021/06/05 11:42:02;;;;;;;0.73;0.50;;;12.10;99.90;;;;;;4999614;28;20670;-94
2021/06/05 11:44:47;;;;;;;2.00;0.60;;;12.10;99.90;;;;;;5012827;28;20215;-96
2021/06/05 11:47:43;;;;;;;2.13;0.60;;;12.20;99.90;;;;;;5017619;28;20213;-94
2021/06/05 11:50:29;;;;;;;1.27;0.47;;;12.20;99.90;;;;;;5020908;28;20209;-95
2021/06/05 11:53:41;;;;;;;1.87;0.60;;;12.20;99.90;;;;;;5031802;28;20609;-96
2021/06/05 11:56:47;;;;;;;0.73;0.50;;;12.30;99.90;;;;;;5032839;28;20217;-96
2021/06/05 11:59:34;;;;;;;2.93;0.63;;;12.30;99.90;;;;;;5032810;28;20213;-96
2021/06/05 12:02:19;;;;;;;0.40;0.40;;;12.30;99.90;;;;;;5029628;28;20237;-96
2021/06/05 12:05:24;;;;;;;0.57;0.30;;;12.30;99.90;;;;;;5032435;28;20223;-96
2021/06/05 12:08:03;;;;;;;1.80;0.50;;;12.30;99.90;;;;;;5028825;28;20273;-96
2021/06/05 12:10:40;;;;;;;0.57;0.50;;;12.40;99.90;;;;;;5023525;28;20645;-96
2021/06/05 12:13:25;;;;;;;1.00;0.50;;;12.40;99.90;;;;;;5040028;28;20295;-94
2021/06/05 12:16:08;;;;;;;0.70;0.40;;;12.40;99.90;;;;;;5013060;28;20280;-94
2021/06/05 12:18:40;;;;;;;0.57;0.50;;;12.40;99.90;;;;;;5020411;28;20574;-94
2021/06/05 12:21:32;;;;;;;2.37;0.50;;;12.40;99.90;;;;;;5022810;28;20273;-96
2021/06/05 12:24:16;;;;;;;1.83;0.50;;;12.30;99.90;;;;;;5037421;28;20295;-93
2021/06/05 12:26:59;;;;;;;1.93;0.57;;;12.30;99.90;;;;;;5042093;28;20243;-94
2021/06/05 12:29:34;;;;;;;0.80;0.60;;;12.20;99.90;;;;;;5040642;28;20299;-94
2021/06/05 12:32:15;;;;;;;1.23;0.60;;;12.20;99.90;;;;;;5032228;28;20249;-93
2021/06/05 12:34:46;;;;;;;0.93;0.50;;;12.10;99.90;;;;;;5017883;28;20248;-96
2021/06/05 12:37:29;;;;;;;1.93;0.53;;;12.10;99.90;;;;;;5021025;28;20229;-96
2021/06/05 12:40:15;;;;;;;2.63;0.80;;;12.10;99.90;;;;;;5020923;28;20209;-96
2021/06/05 12:42:58;;;;;;;3.23;0.70;;;12.10;99.90;;;;;;5024783;28;20216;-96
2021/06/05 12:45:29;;;;;;;0.97;0.67;;;12.00;99.90;;;;;;5018881;28;20268;-95
2021/06/05 12:48:06;;;;;;;0.67;0.60;;;11.90;99.90;;;;;;5019016;28;20211;-94
2021/06/05 12:50:42;;;;;;;1.30;0.50;;;11.80;99.90;;;;;;5017879;28;20220;-94
2021/06/05 12:53:31;;;;;;;1.63;0.90;;;11.80;99.90;;;;;;5024198;28;20235;-96
2021/06/05 12:56:27;;;;;;;1.07;1.00;;;11.70;99.90;;;;;;5033974;28;20217;-95
2021/06/05 12:59:00;;;;;;;2.50;1.00;;;11.70;99.90;;;;;;5044238;28;20221;-95
2021/06/05 13:01:35;;;;;;;1.93;0.80;;;11.70;99.90;;;;;;5037364;28;20217;-95
2021/06/05 13:04:08;;;;;;;0.70;0.70;;;11.70;99.90;;;;;;5035108;28;20204;-94
2021/06/05 13:06:58;;;;;;;1.80;0.83;;;11.60;99.90;;;;;;5039687;28;20216;-94
2021/06/05 13:09:35;;;;;;;3.23;0.83;;;11.60;99.90;;;;;;5057867;28;20212;-95
2021/06/05 13:12:30;;;;;;;2.03;0.80;;;11.50;99.90;;;;;;5047335;28;20619;-93
2021/06/05 13:15:11;;;;;;;3.13;0.83;;;11.50;99.90;;;;;;5041880;28;20209;-94
2021/06/05 13:17:44;;;;;;;2.30;1.00;;;11.50;99.90;;;;;;5040522;28;20272;-94
2021/06/05 13:20:28;;;;;;;2.00;0.80;;;11.40;99.90;;;;;;5037668;28;20661;-93
2021/06/05 13:23:27;;;;;;;2.57;0.97;;;11.40;99.90;;;;;;5028192;28;20287;-94
2021/06/05 13:26:24;;;;;;;1.63;1.07;;;11.40;99.90;;;;;;5030469;28;20232;-94
2021/06/05 13:28:55;;;;;;;1.77;1.00;;;11.40;99.90;;;;;;5037158;28;20205;-94
2021/06/05 13:31:43;;;;;;;1.27;0.93;;;11.40;99.90;;;;;;5042152;28;20231;-94
2021/06/05 13:34:20;;;;;;;1.33;0.80;;;11.40;99.90;;;;;;5054944;28;20296;-94
2021/06/05 13:37:08;;;;;;;1.43;0.83;;;11.50;99.90;;;;;;5036191;28;20194;-94
2021/06/05 13:39:41;;;;;;;1.87;0.87;;;11.50;99.90;;;;;;5023662;28;20208;-93
2021/06/05 13:42:19;;;;;;;2.73;0.93;;;11.60;99.90;;;;;;5019510;28;20233;-94
2021/06/05 13:44:52;;;;;;;1.53;0.93;;;11.70;99.90;;;;;;5017766;28;20210;-94
2021/06/05 13:47:25;;;;;;;2.97;0.93;;;11.60;99.90;;;;;;5019793;28;20206;-96
2021/06/05 13:50:02;;;;;;;2.27;0.73;;;11.60;99.90;;;;;;5019244;28;20212;-96
2021/06/05 13:52:36;;;;;;;0.83;0.73;;;11.70;99.90;;;;;;5022101;28;20205;-96
2021/06/05 13:55:10;;;;;;;1.00;0.70;;;11.80;99.90;;;;;;5024736;28;20202;-96
2021/06/05 13:57:44;;;;;;;1.00;0.70;;;11.90;99.90;;;;;;5021082;28;20228;-96
2021/06/05 14:00:18;;;;;;;1.20;0.60;;;12.00;99.90;;;;;;5020329;28;20227;-96
2021/06/05 14:02:51;;;;;;;2.70;0.80;;;12.00;99.90;;;;;;5019334;28;20340;-96
2021/06/05 14:05:22;;;;;;;2.17;1.03;;;11.90;99.90;;;;;;5016628;28;20288;-94